sensor_id;sensor_type;location;lat;lon;timestamp;P1;durP1;ratioP1;P2;durP2;ratioP2
40637;SDS011;26336;44.696;10.622;2022-07-18T00:02:01;5.20;;;3.72;;
40637;SDS011;26336;44.696;10.622;2022-07-18T00:05:06;6.10;;;3.95;;
40637;SDS011;26336;44.696;10.622;2022-07-18T00:08:10;6.25;;;4.00;;
40637;SDS011;26336;44.696;10.622;2022-07-18T00:11:14;5.72;;;3.85;;
40637;SDS011;26336;44.696;10.622;2022-07-18T00:14:19;7.47;;;3.40;;
40637;SDS011;26336;44.696;10.622;2022-07-18T00:17:24;6.13;;;3.60;;
40637;SDS011;26336;44.696;10.622;2022-07-18T00:20:28;4.50;;;3.28;;
40637;SDS011;26336;44.696;10.622;2022-07-18T00:23:32;7.85;;;4.50;;
40637;SDS011;26336;44.696;10.622;2022-07-18T00:26:36;9.23;;;3.97;;
40637;SDS011;26336;44.696;10.622;2022-07-18T00:29:41;7.53;;;3.92;;
40637;SDS011;26336;44.696;10.622;2022-07-18T00:32:44;5.97;;;3.80;;
40637;SDS011;26336;44.696;10.622;2022-07-18T00:35:48;8.13;;;3.80;;
40637;SDS011;26336;44.696;10.622;2022-07-18T00:38:52;7.88;;;4.15;;
40637;SDS011;26336;44.696;10.622;2022-07-18T00:41:57;9.88;;;3.83;;
40637;SDS011;26336;44.696;10.622;2022-07-18T00:45:01;9.75;;;3.80;;
40637;SDS011;26336;44.696;10.622;2022-07-18T00:48:06;5.55;;;3.95;;
40637;SDS011;26336;44.696;10.622;2022-07-18T00:51:10;5.15;;;4.00;;
40637;SDS011;26336;44.696;10.622;2022-07-18T00:54:14;9.93;;;4.97;;
40637;SDS011;26336;44.696;10.622;2022-07-18T00:57:20;7.18;;;5.00;;
40637;SDS011;26336;44.696;10.622;2022-07-18T01:00:24;8.93;;;4.63;;
40637;SDS011;26336;44.696;10.622;2022-07-18T01:03:47;9.80;;;5.07;;
40637;SDS011;26336;44.696;10.622;2022-07-18T01:06:50;10.15;;;5.28;;
40637;SDS011;26336;44.696;10.622;2022-07-18T01:09:55;10.77;;;5.05;;
40637;SDS011;26336;44.696;10.622;2022-07-18T01:12:59;10.82;;;4.70;;
40637;SDS011;26336;44.696;10.622;2022-07-18T01:16:04;5.45;;;4.22;;
40637;SDS011;26336;44.696;10.622;2022-07-18T01:19:09;8.18;;;4.97;;
40637;SDS011;26336;44.696;10.622;2022-07-18T01:22:14;5.88;;;4.82;;
40637;SDS011;26336;44.696;10.622;2022-07-18T01:25:20;10.63;;;5.07;;
40637;SDS011;26336;44.696;10.622;2022-07-18T01:28:24;7.53;;;4.80;;
40637;SDS011;26336;44.696;10.622;2022-07-18T01:31:28;6.72;;;4.15;;
40637;SDS011;26336;44.696;10.622;2022-07-18T01:34:36;7.80;;;4.82;;
40637;SDS011;26336;44.696;10.622;2022-07-18T01:37:41;5.05;;;4.22;;
40637;SDS011;26336;44.696;10.622;2022-07-18T01:40:45;7.30;;;5.18;;
40637;SDS011;26336;44.696;10.622;2022-07-18T01:43:49;5.18;;;4.50;;
40637;SDS011;26336;44.696;10.622;2022-07-18T01:46:53;6.22;;;4.50;;
40637;SDS011;26336;44.696;10.622;2022-07-18T01:49:57;6.10;;;4.00;;
40637;SDS011;26336;44.696;10.622;2022-07-18T01:53:01;4.63;;;3.80;;
40637;SDS011;26336;44.696;10.622;2022-07-18T01:56:05;4.88;;;4.03;;
40637;SDS011;26336;44.696;10.622;2022-07-18T01:59:10;6.80;;;4.20;;
40637;SDS011;26336;44.696;10.622;2022-07-18T02:02:14;9.15;;;4.53;;
40637;SDS011;26336;44.696;10.622;2022-07-18T02:05:18;7.88;;;4.78;;
40637;SDS011;26336;44.696;10.622;2022-07-18T02:08:22;5.30;;;4.53;;
40637;SDS011;26336;44.696;10.622;2022-07-18T02:11:26;6.40;;;5.05;;
40637;SDS011;26336;44.696;10.622;2022-07-18T02:14:30;5.07;;;3.95;;
40637;SDS011;26336;44.696;10.622;2022-07-18T02:17:34;6.13;;;4.15;;
40637;SDS011;26336;44.696;10.622;2022-07-18T02:20:38;6.82;;;4.35;;
40637;SDS011;26336;44.696;10.622;2022-07-18T02:23:43;7.57;;;3.88;;
40637;SDS011;26336;44.696;10.622;2022-07-18T02:26:47;9.38;;;4.18;;
40637;SDS011;26336;44.696;10.622;2022-07-18T02:29:51;8.45;;;4.63;;
40637;SDS011;26336;44.696;10.622;2022-07-18T02:32:55;6.45;;;4.88;;
40637;SDS011;26336;44.696;10.622;2022-07-18T02:36:00;6.55;;;4.72;;
40637;SDS011;26336;44.696;10.622;2022-07-18T02:39:04;7.03;;;5.03;;
40637;SDS011;26336;44.696;10.622;2022-07-18T02:42:09;6.47;;;5.10;;
40637;SDS011;26336;44.696;10.622;2022-07-18T02:45:13;6.13;;;5.47;;
40637;SDS011;26336;44.696;10.622;2022-07-18T02:48:17;8.75;;;6.05;;
40637;SDS011;26336;44.696;10.622;2022-07-18T02:51:21;9.27;;;6.55;;
40637;SDS011;26336;44.696;10.622;2022-07-18T02:54:25;7.07;;;6.07;;
40637;SDS011;26336;44.696;10.622;2022-07-18T02:57:29;6.07;;;5.47;;
40637;SDS011;26336;44.696;10.622;2022-07-18T03:00:33;8.38;;;5.57;;
40637;SDS011;26336;44.696;10.622;2022-07-18T03:03:37;7.75;;;6.25;;
40637;SDS011;26336;44.696;10.622;2022-07-18T03:06:41;7.50;;;5.80;;
40637;SDS011;26336;44.696;10.622;2022-07-18T03:09:45;6.80;;;6.10;;
40637;SDS011;26336;44.696;10.622;2022-07-18T03:12:49;8.23;;;5.68;;
40637;SDS011;26336;44.696;10.622;2022-07-18T03:15:53;8.20;;;6.07;;
40637;SDS011;26336;44.696;10.622;2022-07-18T03:18:57;8.40;;;5.28;;
40637;SDS011;26336;44.696;10.622;2022-07-18T03:22:02;10.77;;;5.90;;
40637;SDS011;26336;44.696;10.622;2022-07-18T03:25:07;9.48;;;5.72;;
40637;SDS011;26336;44.696;10.622;2022-07-18T03:28:11;15.73;;;6.35;;
40637;SDS011;26336;44.696;10.622;2022-07-18T03:31:15;6.53;;;5.57;;
40637;SDS011;26336;44.696;10.622;2022-07-18T03:34:19;9.48;;;6.68;;
40637;SDS011;26336;44.696;10.622;2022-07-18T03:37:23;8.15;;;5.15;;
40637;SDS011;26336;44.696;10.622;2022-07-18T03:40:27;8.43;;;5.88;;
40637;SDS011;26336;44.696;10.622;2022-07-18T03:43:31;11.95;;;6.70;;
40637;SDS011;26336;44.696;10.622;2022-07-18T03:46:35;10.18;;;6.93;;
40637;SDS011;26336;44.696;10.622;2022-07-18T03:49:39;13.23;;;7.85;;
40637;SDS011;26336;44.696;10.622;2022-07-18T03:52:43;7.50;;;6.75;;
40637;SDS011;26336;44.696;10.622;2022-07-18T03:55:47;12.30;;;7.65;;
40637;SDS011;26336;44.696;10.622;2022-07-18T03:58:51;9.45;;;8.50;;
40637;SDS011;26336;44.696;10.622;2022-07-18T04:01:55;10.55;;;8.35;;
40637;SDS011;26336;44.696;10.622;2022-07-18T04:04:58;9.68;;;7.65;;
40637;SDS011;26336;44.696;10.622;2022-07-18T04:08:02;9.50;;;7.30;;
40637;SDS011;26336;44.696;10.622;2022-07-18T04:11:07;12.75;;;9.43;;
40637;SDS011;26336;44.696;10.622;2022-07-18T04:14:11;9.75;;;8.15;;
40637;SDS011;26336;44.696;10.622;2022-07-18T04:17:15;10.10;;;8.13;;
40637;SDS011;26336;44.696;10.622;2022-07-18T04:20:19;10.15;;;9.00;;
40637;SDS011;26336;44.696;10.622;2022-07-18T04:23:23;13.30;;;8.50;;
40637;SDS011;26336;44.696;10.622;2022-07-18T04:26:27;13.90;;;9.38;;
40637;SDS011;26336;44.696;10.622;2022-07-18T04:29:31;12.13;;;7.90;;
40637;SDS011;26336;44.696;10.622;2022-07-18T04:32:35;13.25;;;8.65;;
40637;SDS011;26336;44.696;10.622;2022-07-18T04:35:40;9.45;;;8.45;;
40637;SDS011;26336;44.696;10.622;2022-07-18T04:38:44;12.82;;;9.65;;
40637;SDS011;26336;44.696;10.622;2022-07-18T04:41:48;11.40;;;9.05;;
40637;SDS011;26336;44.696;10.622;2022-07-18T04:44:52;12.38;;;9.10;;
40637;SDS011;26336;44.696;10.622;2022-07-18T04:47:56;13.35;;;8.82;;
40637;SDS011;26336;44.696;10.622;2022-07-18T04:51:01;9.93;;;8.93;;
40637;SDS011;26336;44.696;10.622;2022-07-18T04:54:05;11.23;;;9.30;;
40637;SDS011;26336;44.696;10.622;2022-07-18T04:57:09;12.40;;;9.60;;
40637;SDS011;26336;44.696;10.622;2022-07-18T05:00:17;13.05;;;10.88;;
40637;SDS011;26336;44.696;10.622;2022-07-18T05:03:25;10.32;;;8.48;;
40637;SDS011;26336;44.696;10.622;2022-07-18T05:06:29;11.18;;;8.98;;
40637;SDS011;26336;44.696;10.622;2022-07-18T05:09:33;14.13;;;12.65;;
40637;SDS011;26336;44.696;10.622;2022-07-18T05:12:38;13.73;;;11.27;;
40637;SDS011;26336;44.696;10.622;2022-07-18T05:15:43;12.50;;;9.23;;
40637;SDS011;26336;44.696;10.622;2022-07-18T05:18:47;12.27;;;9.52;;
40637;SDS011;26336;44.696;10.622;2022-07-18T05:21:51;12.63;;;10.18;;
40637;SDS011;26336;44.696;10.622;2022-07-18T05:24:55;14.13;;;9.45;;
40637;SDS011;26336;44.696;10.622;2022-07-18T05:27:59;11.38;;;9.05;;
40637;SDS011;26336;44.696;10.622;2022-07-18T05:31:03;14.00;;;10.60;;
40637;SDS011;26336;44.696;10.622;2022-07-18T05:34:07;11.88;;;9.35;;
40637;SDS011;26336;44.696;10.622;2022-07-18T05:37:11;14.27;;;9.57;;
40637;SDS011;26336;44.696;10.622;2022-07-18T05:40:15;12.32;;;8.70;;
40637;SDS011;26336;44.696;10.622;2022-07-18T05:43:19;14.18;;;9.90;;
40637;SDS011;26336;44.696;10.622;2022-07-18T05:46:23;13.48;;;8.80;;
40637;SDS011;26336;44.696;10.622;2022-07-18T05:49:27;11.82;;;8.30;;
40637;SDS011;26336;44.696;10.622;2022-07-18T05:52:32;8.77;;;7.45;;
40637;SDS011;26336;44.696;10.622;2022-07-18T05:55:36;10.73;;;7.22;;
40637;SDS011;26336;44.696;10.622;2022-07-18T05:58:40;12.00;;;8.35;;
40637;SDS011;26336;44.696;10.622;2022-07-18T06:01:45;17.30;;;8.70;;
40637;SDS011;26336;44.696;10.622;2022-07-18T06:04:50;9.57;;;7.82;;
40637;SDS011;26336;44.696;10.622;2022-07-18T06:07:53;9.68;;;8.10;;
40637;SDS011;26336;44.696;10.622;2022-07-18T06:10:58;10.98;;;8.85;;
40637;SDS011;26336;44.696;10.622;2022-07-18T06:14:02;8.88;;;7.97;;
40637;SDS011;26336;44.696;10.622;2022-07-18T06:17:06;11.18;;;8.02;;
40637;SDS011;26336;44.696;10.622;2022-07-18T06:20:11;12.15;;;8.65;;
40637;SDS011;26336;44.696;10.622;2022-07-18T06:23:15;18.95;;;11.10;;
40637;SDS011;26336;44.696;10.622;2022-07-18T06:26:19;13.80;;;10.48;;
40637;SDS011;26336;44.696;10.622;2022-07-18T06:29:23;13.55;;;10.52;;
40637;SDS011;26336;44.696;10.622;2022-07-18T06:32:28;13.20;;;10.10;;
40637;SDS011;26336;44.696;10.622;2022-07-18T06:35:32;12.88;;;11.07;;
40637;SDS011;26336;44.696;10.622;2022-07-18T06:38:35;17.20;;;11.40;;
40637;SDS011;26336;44.696;10.622;2022-07-18T06:41:39;16.58;;;11.10;;
40637;SDS011;26336;44.696;10.622;2022-07-18T06:44:49;13.50;;;10.70;;
40637;SDS011;26336;44.696;10.622;2022-07-18T06:47:53;18.27;;;10.75;;
40637;SDS011;26336;44.696;10.622;2022-07-18T06:50:57;12.43;;;9.23;;
40637;SDS011;26336;44.696;10.622;2022-07-18T06:54:01;11.48;;;9.25;;
40637;SDS011;26336;44.696;10.622;2022-07-18T06:57:05;13.05;;;8.25;;
40637;SDS011;26336;44.696;10.622;2022-07-18T07:00:12;9.75;;;7.18;;
40637;SDS011;26336;44.696;10.622;2022-07-18T07:03:17;11.80;;;7.43;;
40637;SDS011;26336;44.696;10.622;2022-07-18T07:06:21;10.48;;;8.15;;
40637;SDS011;26336;44.696;10.622;2022-07-18T07:09:25;13.18;;;7.78;;
40637;SDS011;26336;44.696;10.622;2022-07-18T07:12:29;9.88;;;7.13;;
40637;SDS011;26336;44.696;10.622;2022-07-18T07:15:33;10.30;;;7.22;;
40637;SDS011;26336;44.696;10.622;2022-07-18T07:18:37;13.25;;;7.72;;
40637;SDS011;26336;44.696;10.622;2022-07-18T07:21:41;9.65;;;6.90;;
40637;SDS011;26336;44.696;10.622;2022-07-18T07:24:45;10.27;;;6.85;;
40637;SDS011;26336;44.696;10.622;2022-07-18T07:27:48;9.85;;;7.50;;
40637;SDS011;26336;44.696;10.622;2022-07-18T07:30:53;9.93;;;6.97;;
40637;SDS011;26336;44.696;10.622;2022-07-18T07:33:57;95.97;;;15.27;;
40637;SDS011;26336;44.696;10.622;2022-07-18T07:37:01;9.75;;;7.55;;
40637;SDS011;26336;44.696;10.622;2022-07-18T07:40:06;12.05;;;8.38;;
40637;SDS011;26336;44.696;10.622;2022-07-18T07:43:11;10.10;;;7.90;;
40637;SDS011;26336;44.696;10.622;2022-07-18T07:46:17;11.48;;;7.15;;
40637;SDS011;26336;44.696;10.622;2022-07-18T07:49:21;9.60;;;7.22;;
40637;SDS011;26336;44.696;10.622;2022-07-18T07:52:25;8.68;;;6.32;;
40637;SDS011;26336;44.696;10.622;2022-07-18T07:55:31;10.90;;;6.53;;
40637;SDS011;26336;44.696;10.622;2022-07-18T07:58:35;7.63;;;6.40;;
40637;SDS011;26336;44.696;10.622;2022-07-18T08:01:39;9.55;;;6.75;;
40637;SDS011;26336;44.696;10.622;2022-07-18T08:04:42;8.90;;;5.50;;
40637;SDS011;26336;44.696;10.622;2022-07-18T08:07:46;6.28;;;5.60;;
40637;SDS011;26336;44.696;10.622;2022-07-18T08:10:51;6.85;;;4.97;;
40637;SDS011;26336;44.696;10.622;2022-07-18T08:13:56;14.05;;;5.53;;
40637;SDS011;26336;44.696;10.622;2022-07-18T08:17:00;9.13;;;5.72;;
40637;SDS011;26336;44.696;10.622;2022-07-18T08:20:04;7.88;;;5.70;;
40637;SDS011;26336;44.696;10.622;2022-07-18T08:23:09;8.68;;;5.35;;
40637;SDS011;26336;44.696;10.622;2022-07-18T08:26:15;8.85;;;5.78;;
40637;SDS011;26336;44.696;10.622;2022-07-18T08:29:18;7.47;;;5.30;;
40637;SDS011;26336;44.696;10.622;2022-07-18T08:32:23;9.23;;;5.35;;
40637;SDS011;26336;44.696;10.622;2022-07-18T08:35:27;6.45;;;5.20;;
40637;SDS011;26336;44.696;10.622;2022-07-18T08:38:32;7.30;;;6.03;;
40637;SDS011;26336;44.696;10.622;2022-07-18T08:41:36;8.35;;;4.80;;
40637;SDS011;26336;44.696;10.622;2022-07-18T08:44:43;7.07;;;4.55;;
40637;SDS011;26336;44.696;10.622;2022-07-18T08:47:49;6.30;;;4.32;;
40637;SDS011;26336;44.696;10.622;2022-07-18T08:50:54;7.40;;;4.20;;
40637;SDS011;26336;44.696;10.622;2022-07-18T08:53:57;6.82;;;4.00;;
40637;SDS011;26336;44.696;10.622;2022-07-18T08:57:03;5.47;;;3.88;;
40637;SDS011;26336;44.696;10.622;2022-07-18T09:00:07;8.95;;;3.50;;
40637;SDS011;26336;44.696;10.622;2022-07-18T09:03:13;7.50;;;4.22;;
40637;SDS011;26336;44.696;10.622;2022-07-18T09:06:17;4.57;;;3.88;;
40637;SDS011;26336;44.696;10.622;2022-07-18T09:09:21;4.00;;;3.42;;
40637;SDS011;26336;44.696;10.622;2022-07-18T09:12:26;5.13;;;3.80;;
40637;SDS011;26336;44.696;10.622;2022-07-18T09:15:31;6.55;;;3.67;;
40637;SDS011;26336;44.696;10.622;2022-07-18T09:18:36;6.72;;;4.13;;
40637;SDS011;26336;44.696;10.622;2022-07-18T09:21:42;7.68;;;3.90;;
40637;SDS011;26336;44.696;10.622;2022-07-18T09:28:04;9.90;;;3.95;;
40637;SDS011;26336;44.696;10.622;2022-07-18T09:31:20;7.15;;;4.07;;
40637;SDS011;26336;44.696;10.622;2022-07-18T09:34:34;7.47;;;4.47;;
40637;SDS011;26336;44.696;10.622;2022-07-18T09:37:40;6.80;;;4.00;;
40637;SDS011;26336;44.696;10.622;2022-07-18T09:40:55;5.22;;;3.67;;
40637;SDS011;26336;44.696;10.622;2022-07-18T09:44:13;3.70;;;3.25;;
40637;SDS011;26336;44.696;10.622;2022-07-18T09:47:20;4.28;;;3.70;;
40637;SDS011;26336;44.696;10.622;2022-07-18T09:50:35;4.47;;;3.20;;
40637;SDS011;26336;44.696;10.622;2022-07-18T09:53:40;5.65;;;3.67;;
40637;SDS011;26336;44.696;10.622;2022-07-18T09:56:45;5.03;;;3.38;;
40637;SDS011;26336;44.696;10.622;2022-07-18T09:59:49;4.38;;;3.33;;
40637;SDS011;26336;44.696;10.622;2022-07-18T10:02:54;3.88;;;3.35;;
40637;SDS011;26336;44.696;10.622;2022-07-18T10:06:03;7.57;;;3.90;;
40637;SDS011;26336;44.696;10.622;2022-07-18T10:09:07;4.05;;;3.45;;
40637;SDS011;26336;44.696;10.622;2022-07-18T10:12:12;5.50;;;3.40;;
40637;SDS011;26336;44.696;10.622;2022-07-18T10:15:19;5.13;;;3.28;;
40637;SDS011;26336;44.696;10.622;2022-07-18T10:18:26;5.28;;;3.58;;
40637;SDS011;26336;44.696;10.622;2022-07-18T10:21:32;5.32;;;3.53;;
40637;SDS011;26336;44.696;10.622;2022-07-18T10:24:38;5.80;;;3.70;;
40637;SDS011;26336;44.696;10.622;2022-07-18T10:30:56;3.53;;;3.08;;
40637;SDS011;26336;44.696;10.622;2022-07-18T10:34:20;4.63;;;3.00;;
40637;SDS011;26336;44.696;10.622;2022-07-18T10:37:32;6.78;;;3.35;;
40637;SDS011;26336;44.696;10.622;2022-07-18T10:40:39;5.40;;;3.33;;
40637;SDS011;26336;44.696;10.622;2022-07-18T10:47:46;5.30;;;3.20;;
40637;SDS011;26336;44.696;10.622;2022-07-18T10:51:00;6.25;;;3.25;;
40637;SDS011;26336;44.696;10.622;2022-07-18T10:54:05;4.88;;;3.20;;
40637;SDS011;26336;44.696;10.622;2022-07-18T10:57:10;5.85;;;3.35;;
40637;SDS011;26336;44.696;10.622;2022-07-18T11:03:29;4.80;;;3.47;;
40637;SDS011;26336;44.696;10.622;2022-07-18T11:09:56;3.70;;;3.40;;
40637;SDS011;26336;44.696;10.622;2022-07-18T11:16:30;3.42;;;2.83;;
40637;SDS011;26336;44.696;10.622;2022-07-18T11:19:37;5.88;;;3.80;;
40637;SDS011;26336;44.696;10.622;2022-07-18T11:22:41;6.13;;;3.53;;
40637;SDS011;26336;44.696;10.622;2022-07-18T11:25:46;5.30;;;3.60;;
40637;SDS011;26336;44.696;10.622;2022-07-18T11:28:57;4.68;;;3.80;;
40637;SDS011;26336;44.696;10.622;2022-07-18T11:32:03;6.80;;;3.28;;
40637;SDS011;26336;44.696;10.622;2022-07-18T11:35:07;4.75;;;3.42;;
40637;SDS011;26336;44.696;10.622;2022-07-18T11:38:13;7.45;;;4.43;;
40637;SDS011;26336;44.696;10.622;2022-07-18T11:41:18;6.70;;;4.40;;
40637;SDS011;26336;44.696;10.622;2022-07-18T11:44:23;4.60;;;3.38;;
40637;SDS011;26336;44.696;10.622;2022-07-18T11:47:30;4.53;;;3.53;;
40637;SDS011;26336;44.696;10.622;2022-07-18T11:50:35;8.23;;;5.00;;
40637;SDS011;26336;44.696;10.622;2022-07-18T11:53:43;7.32;;;4.90;;
40637;SDS011;26336;44.696;10.622;2022-07-18T11:56:49;5.72;;;4.50;;
40637;SDS011;26336;44.696;10.622;2022-07-18T11:59:55;5.88;;;4.47;;
40637;SDS011;26336;44.696;10.622;2022-07-18T12:03:09;8.07;;;4.78;;
40637;SDS011;26336;44.696;10.622;2022-07-18T12:09:26;6.57;;;4.20;;
40637;SDS011;26336;44.696;10.622;2022-07-18T12:12:35;8.60;;;4.10;;
40637;SDS011;26336;44.696;10.622;2022-07-18T12:15:41;7.00;;;4.60;;
40637;SDS011;26336;44.696;10.622;2022-07-18T12:18:50;5.85;;;3.97;;
40637;SDS011;26336;44.696;10.622;2022-07-18T12:24:59;5.35;;;4.82;;
40637;SDS011;26336;44.696;10.622;2022-07-18T12:28:17;4.80;;;4.22;;
40637;SDS011;26336;44.696;10.622;2022-07-18T12:31:38;6.10;;;5.35;;
40637;SDS011;26336;44.696;10.622;2022-07-18T12:35:09;8.82;;;5.47;;
40637;SDS011;26336;44.696;10.622;2022-07-18T12:38:14;8.73;;;4.65;;
40637;SDS011;26336;44.696;10.622;2022-07-18T12:41:27;6.25;;;4.65;;
40637;SDS011;26336;44.696;10.622;2022-07-18T12:44:32;5.75;;;5.20;;
40637;SDS011;26336;44.696;10.622;2022-07-18T12:47:36;6.13;;;4.80;;
40637;SDS011;26336;44.696;10.622;2022-07-18T12:50:41;5.35;;;4.47;;
40637;SDS011;26336;44.696;10.622;2022-07-18T12:53:47;6.03;;;5.50;;
40637;SDS011;26336;44.696;10.622;2022-07-18T12:56:51;5.60;;;5.00;;
40637;SDS011;26336;44.696;10.622;2022-07-18T12:59:55;5.32;;;4.43;;
40637;SDS011;26336;44.696;10.622;2022-07-18T13:02:59;5.00;;;4.60;;
40637;SDS011;26336;44.696;10.622;2022-07-18T13:06:04;7.80;;;4.88;;
40637;SDS011;26336;44.696;10.622;2022-07-18T13:09:08;6.50;;;4.97;;
40637;SDS011;26336;44.696;10.622;2022-07-18T13:12:12;7.18;;;4.10;;
40637;SDS011;26336;44.696;10.622;2022-07-18T13:15:16;4.80;;;4.03;;
40637;SDS011;26336;44.696;10.622;2022-07-18T13:18:23;8.30;;;4.82;;
40637;SDS011;26336;44.696;10.622;2022-07-18T13:21:28;6.25;;;4.90;;
40637;SDS011;26336;44.696;10.622;2022-07-18T13:24:32;5.07;;;4.57;;
40637;SDS011;26336;44.696;10.622;2022-07-18T13:27:36;5.20;;;4.70;;
40637;SDS011;26336;44.696;10.622;2022-07-18T13:30:41;4.63;;;4.22;;
40637;SDS011;26336;44.696;10.622;2022-07-18T13:33:45;7.28;;;4.88;;
40637;SDS011;26336;44.696;10.622;2022-07-18T13:36:54;5.32;;;4.80;;
40637;SDS011;26336;44.696;10.622;2022-07-18T13:39:58;5.75;;;4.60;;
40637;SDS011;26336;44.696;10.622;2022-07-18T13:43:02;5.35;;;4.85;;
40637;SDS011;26336;44.696;10.622;2022-07-18T13:46:07;6.20;;;4.75;;
40637;SDS011;26336;44.696;10.622;2022-07-18T13:49:12;5.13;;;4.63;;
40637;SDS011;26336;44.696;10.622;2022-07-18T13:52:16;6.57;;;4.30;;
40637;SDS011;26336;44.696;10.622;2022-07-18T13:55:21;6.10;;;4.63;;
40637;SDS011;26336;44.696;10.622;2022-07-18T13:58:26;6.53;;;4.63;;
40637;SDS011;26336;44.696;10.622;2022-07-18T14:01:30;6.38;;;4.80;;
40637;SDS011;26336;44.696;10.622;2022-07-18T14:04:34;6.53;;;4.90;;
40637;SDS011;26336;44.696;10.622;2022-07-18T14:07:39;5.13;;;4.63;;
40637;SDS011;26336;44.696;10.622;2022-07-18T14:10:49;5.30;;;4.80;;
40637;SDS011;26336;44.696;10.622;2022-07-18T14:13:53;6.53;;;4.60;;
40637;SDS011;26336;44.696;10.622;2022-07-18T14:16:58;5.95;;;4.40;;
40637;SDS011;26336;44.696;10.622;2022-07-18T14:20:02;8.43;;;4.03;;
40637;SDS011;26336;44.696;10.622;2022-07-18T14:23:07;6.10;;;4.13;;
40637;SDS011;26336;44.696;10.622;2022-07-18T14:26:11;5.28;;;4.20;;
40637;SDS011;26336;44.696;10.622;2022-07-18T14:29:15;5.43;;;4.15;;
40637;SDS011;26336;44.696;10.622;2022-07-18T14:32:19;7.10;;;4.35;;
40637;SDS011;26336;44.696;10.622;2022-07-18T14:35:23;4.93;;;4.40;;
40637;SDS011;26336;44.696;10.622;2022-07-18T14:38:26;5.15;;;4.47;;
40637;SDS011;26336;44.696;10.622;2022-07-18T14:41:31;7.97;;;4.53;;
40637;SDS011;26336;44.696;10.622;2022-07-18T14:44:35;5.15;;;3.95;;
40637;SDS011;26336;44.696;10.622;2022-07-18T14:47:40;5.88;;;4.47;;
40637;SDS011;26336;44.696;10.622;2022-07-18T14:50:46;5.60;;;5.10;;
40637;SDS011;26336;44.696;10.622;2022-07-18T14:53:49;4.35;;;3.95;;
40637;SDS011;26336;44.696;10.622;2022-07-18T14:56:53;5.70;;;3.90;;
40637;SDS011;26336;44.696;10.622;2022-07-18T14:59:58;4.40;;;3.38;;
40637;SDS011;26336;44.696;10.622;2022-07-18T15:03:02;5.20;;;4.07;;
40637;SDS011;26336;44.696;10.622;2022-07-18T15:06:06;5.03;;;3.70;;
40637;SDS011;26336;44.696;10.622;2022-07-18T15:09:10;7.45;;;3.90;;
40637;SDS011;26336;44.696;10.622;2022-07-18T15:12:14;6.50;;;3.47;;
40637;SDS011;26336;44.696;10.622;2022-07-18T15:15:18;4.63;;;3.58;;
40637;SDS011;26336;44.696;10.622;2022-07-18T15:18:22;5.40;;;3.28;;
40637;SDS011;26336;44.696;10.622;2022-07-18T15:21:26;3.90;;;3.00;;
40637;SDS011;26336;44.696;10.622;2022-07-18T15:24:31;8.15;;;3.00;;
40637;SDS011;26336;44.696;10.622;2022-07-18T15:27:36;4.70;;;2.90;;
40637;SDS011;26336;44.696;10.622;2022-07-18T15:30:40;4.43;;;2.95;;
40637;SDS011;26336;44.696;10.622;2022-07-18T15:33:44;4.93;;;2.75;;
40637;SDS011;26336;44.696;10.622;2022-07-18T15:36:48;4.03;;;2.80;;
40637;SDS011;26336;44.696;10.622;2022-07-18T15:39:52;5.57;;;3.20;;
40637;SDS011;26336;44.696;10.622;2022-07-18T15:42:56;3.95;;;2.80;;
40637;SDS011;26336;44.696;10.622;2022-07-18T15:46:00;5.05;;;2.80;;
40637;SDS011;26336;44.696;10.622;2022-07-18T15:49:04;4.07;;;2.70;;
40637;SDS011;26336;44.696;10.622;2022-07-18T15:52:08;3.67;;;3.08;;
40637;SDS011;26336;44.696;10.622;2022-07-18T15:55:12;5.13;;;2.78;;
40637;SDS011;26336;44.696;10.622;2022-07-18T15:58:16;4.88;;;3.15;;
40637;SDS011;26336;44.696;10.622;2022-07-18T16:01:20;2.78;;;2.25;;
40637;SDS011;26336;44.696;10.622;2022-07-18T16:04:24;4.43;;;2.72;;
40637;SDS011;26336;44.696;10.622;2022-07-18T16:07:28;4.35;;;2.65;;
40637;SDS011;26336;44.696;10.622;2022-07-18T16:10:32;4.50;;;2.90;;
40637;SDS011;26336;44.696;10.622;2022-07-18T16:13:36;5.38;;;2.95;;
40637;SDS011;26336;44.696;10.622;2022-07-18T16:16:40;3.65;;;2.60;;
40637;SDS011;26336;44.696;10.622;2022-07-18T16:19:44;3.65;;;2.78;;
40637;SDS011;26336;44.696;10.622;2022-07-18T16:22:48;6.13;;;2.75;;
40637;SDS011;26336;44.696;10.622;2022-07-18T16:25:52;2.50;;;2.30;;
40637;SDS011;26336;44.696;10.622;2022-07-18T16:28:56;6.65;;;3.08;;
40637;SDS011;26336;44.696;10.622;2022-07-18T16:31:59;5.30;;;2.35;;
40637;SDS011;26336;44.696;10.622;2022-07-18T16:35:04;3.55;;;3.03;;
40637;SDS011;26336;44.696;10.622;2022-07-18T16:38:08;4.15;;;2.80;;
40637;SDS011;26336;44.696;10.622;2022-07-18T16:41:12;3.75;;;2.67;;
40637;SDS011;26336;44.696;10.622;2022-07-18T16:44:17;5.40;;;2.72;;
40637;SDS011;26336;44.696;10.622;2022-07-18T16:47:21;4.40;;;2.30;;
40637;SDS011;26336;44.696;10.622;2022-07-18T16:50:25;5.70;;;2.78;;
40637;SDS011;26336;44.696;10.622;2022-07-18T16:53:30;4.25;;;2.85;;
40637;SDS011;26336;44.696;10.622;2022-07-18T16:56:36;5.10;;;2.65;;
40637;SDS011;26336;44.696;10.622;2022-07-18T16:59:41;4.75;;;2.90;;
40637;SDS011;26336;44.696;10.622;2022-07-18T17:02:48;6.05;;;2.90;;
40637;SDS011;26336;44.696;10.622;2022-07-18T17:05:52;5.90;;;2.70;;
40637;SDS011;26336;44.696;10.622;2022-07-18T17:08:57;2.85;;;2.60;;
40637;SDS011;26336;44.696;10.622;2022-07-18T17:12:01;3.20;;;2.90;;
40637;SDS011;26336;44.696;10.622;2022-07-18T17:15:06;2.85;;;2.53;;
40637;SDS011;26336;44.696;10.622;2022-07-18T17:18:12;6.22;;;2.65;;
40637;SDS011;26336;44.696;10.622;2022-07-18T17:21:17;8.10;;;3.10;;
40637;SDS011;26336;44.696;10.622;2022-07-18T17:24:21;8.05;;;2.53;;
40637;SDS011;26336;44.696;10.622;2022-07-18T17:27:25;4.63;;;2.80;;
40637;SDS011;26336;44.696;10.622;2022-07-18T17:30:29;4.90;;;2.35;;
40637;SDS011;26336;44.696;10.622;2022-07-18T17:33:34;3.75;;;2.63;;
40637;SDS011;26336;44.696;10.622;2022-07-18T17:36:38;4.38;;;2.70;;
40637;SDS011;26336;44.696;10.622;2022-07-18T17:39:44;2.95;;;2.40;;
40637;SDS011;26336;44.696;10.622;2022-07-18T17:42:51;3.35;;;2.30;;
40637;SDS011;26336;44.696;10.622;2022-07-18T17:45:56;3.17;;;2.33;;
40637;SDS011;26336;44.696;10.622;2022-07-18T17:49:00;3.50;;;2.38;;
40637;SDS011;26336;44.696;10.622;2022-07-18T17:52:05;5.35;;;2.45;;
40637;SDS011;26336;44.696;10.622;2022-07-18T17:55:10;3.80;;;2.70;;
40637;SDS011;26336;44.696;10.622;2022-07-18T17:58:14;3.63;;;2.67;;
40637;SDS011;26336;44.696;10.622;2022-07-18T18:01:18;5.15;;;2.67;;
40637;SDS011;26336;44.696;10.622;2022-07-18T18:04:22;4.30;;;2.95;;
40637;SDS011;26336;44.696;10.622;2022-07-18T18:07:26;6.07;;;4.38;;
40637;SDS011;26336;44.696;10.622;2022-07-18T18:10:30;3.35;;;2.50;;
40637;SDS011;26336;44.696;10.622;2022-07-18T18:13:34;5.03;;;3.03;;
40637;SDS011;26336;44.696;10.622;2022-07-18T18:16:38;6.93;;;2.55;;
40637;SDS011;26336;44.696;10.622;2022-07-18T18:19:42;6.00;;;2.83;;
40637;SDS011;26336;44.696;10.622;2022-07-18T18:22:46;3.50;;;2.60;;
40637;SDS011;26336;44.696;10.622;2022-07-18T18:25:50;6.32;;;2.83;;
40637;SDS011;26336;44.696;10.622;2022-07-18T18:28:56;6.40;;;2.80;;
40637;SDS011;26336;44.696;10.622;2022-07-18T18:32:00;3.10;;;2.42;;
40637;SDS011;26336;44.696;10.622;2022-07-18T18:35:05;3.10;;;2.08;;
40637;SDS011;26336;44.696;10.622;2022-07-18T18:38:10;2.38;;;2.15;;
40637;SDS011;26336;44.696;10.622;2022-07-18T18:41:14;3.80;;;2.72;;